createdAt,value
2018-04-11T06:45:58.645Z,22.70
2018-04-11T06:48:26.150Z,22.40
2018-04-11T06:50:55.152Z,21.90
2018-04-11T06:53:22.649Z,21.90
2018-04-11T06:55:50.160Z,21.90
2018-04-11T06:58:17.670Z,21.80
2018-04-11T07:00:45.915Z,21.70
2018-04-11T07:03:14.162Z,21.70
2018-04-11T07:05:41.685Z,21.70
2018-04-11T07:08:09.153Z,21.70
2018-04-11T07:10:36.655Z,21.60
2018-04-11T07:13:04.154Z,21.60
2018-04-11T07:15:31.664Z,21.60
2018-04-11T07:18:00.659Z,21.60
2018-04-11T07:20:28.302Z,21.60
2018-04-11T07:22:55.796Z,21.60
2018-04-11T07:25:24.060Z,21.60
2018-04-11T07:27:52.450Z,21.70
2018-04-11T07:30:20.723Z,22.10
2018-04-11T07:32:49.031Z,22.30
2018-04-11T07:35:16.595Z,22.30
2018-04-11T07:37:44.105Z,22.50
2018-04-11T07:40:11.633Z,22.60
2018-04-11T07:42:39.660Z,22.50
2018-04-11T07:45:07.160Z,22.30
2018-04-11T07:47:36.744Z,22.20
2018-04-11T07:50:04.231Z,22.10
2018-04-11T07:52:31.718Z,22.10
2018-04-11T07:54:59.987Z,22.00
2018-04-11T07:57:27.552Z,22.00
2018-04-11T07:59:55.068Z,22.10
2018-04-11T08:02:22.733Z,22.10
2018-04-11T08:04:50.224Z,22.10
2018-04-11T08:07:39.218Z,22.20
2018-04-11T08:10:09.087Z,22.20
2018-04-11T08:12:36.921Z,22.20
2018-04-11T08:15:05.514Z,22.20
2018-04-11T08:17:33.015Z,22.20
2018-04-11T08:20:01.340Z,22.20
2018-04-11T08:22:28.864Z,22.20
2018-04-11T08:24:57.608Z,22.30
2018-04-11T08:27:30.283Z,22.30
2018-04-11T08:29:58.447Z,22.40
2018-04-11T08:32:27.052Z,22.50
2018-04-11T08:34:56.084Z,22.30
2018-04-11T08:37:27.379Z,22.30
2018-04-11T08:39:55.605Z,22.30
2018-04-11T08:42:27.127Z,22.30
2018-04-11T08:44:56.722Z,22.30
2018-04-11T08:47:24.273Z,22.30
2018-04-11T08:49:51.726Z,22.30
2018-04-11T08:52:19.218Z,22.50
2018-04-11T08:54:47.479Z,22.80
2018-04-11T08:57:15.860Z,22.90
2018-04-11T08:59:45.443Z,23.00
2018-04-11T09:02:12.942Z,22.90
2018-04-11T09:04:41.922Z,23.00
2018-04-11T09:07:10.924Z,23.00
2018-04-11T09:09:39.528Z,23.00
2018-04-11T09:12:08.955Z,23.00
2018-04-11T09:14:36.697Z,23.00
2018-04-11T09:17:04.931Z,23.00
2018-04-11T09:19:33.262Z,23.00
2018-04-11T09:22:01.948Z,23.00
2018-04-11T09:24:29.458Z,22.90
2018-04-11T09:26:57.539Z,23.00
2018-04-11T09:29:25.160Z,23.00
2018-04-11T09:31:52.843Z,23.00
2018-04-11T09:34:20.281Z,22.90
2018-04-11T09:36:47.799Z,22.90
2018-04-11T09:39:15.306Z,22.90
2018-04-11T09:41:42.829Z,22.90
2018-04-11T09:44:10.332Z,22.90
2018-04-11T09:46:37.802Z,22.90
2018-04-11T09:49:06.042Z,22.80
2018-04-11T09:51:33.589Z,22.70
2018-04-11T09:54:01.122Z,22.70
2018-04-11T09:56:29.972Z,22.60
2018-04-11T09:58:58.204Z,22.60
2018-04-11T10:01:26.689Z,22.60
2018-04-11T10:03:54.192Z,22.60
2018-04-11T10:06:22.447Z,22.40
2018-04-11T10:08:49.948Z,22.40
2018-04-11T10:11:18.229Z,22.40
2018-04-11T10:13:45.755Z,22.50
2018-04-11T10:16:13.973Z,22.40
2018-04-11T10:21:18.893Z,22.40
2018-04-11T10:23:47.462Z,22.40
2018-04-11T10:26:15.914Z,22.40
2018-04-11T10:28:43.432Z,22.30
2018-04-11T10:31:11.696Z,22.40
2018-04-11T10:33:40.040Z,22.40
2018-04-11T10:36:08.799Z,22.40
2018-04-11T10:38:36.478Z,22.40
2018-04-11T10:41:04.960Z,22.40
2018-04-11T10:43:33.859Z,22.40
2018-04-11T10:46:01.939Z,22.50
2018-04-11T10:48:31.819Z,22.50
2018-04-11T10:51:00.222Z,22.50
2018-04-11T10:53:28.641Z,22.50
2018-04-11T10:55:57.893Z,22.60
2018-04-11T10:58:26.453Z,22.60
2018-04-11T11:00:55.115Z,22.70
2018-04-11T11:03:24.280Z,22.70
2018-04-11T11:05:51.795Z,22.70
2018-04-11T11:08:19.993Z,22.80
2018-04-11T11:10:51.750Z,22.80
2018-04-11T11:13:20.586Z,22.70
2018-04-11T11:15:50.349Z,22.70
2018-04-11T11:18:26.503Z,22.70
2018-04-11T11:21:06.766Z,22.60
2018-04-11T11:23:37.179Z,22.60
2018-04-11T11:26:09.717Z,22.60
2018-04-11T11:28:39.080Z,22.60
2018-04-11T12:28:50.746Z,22.40
2018-04-11T12:31:19.137Z,22.30
2018-04-11T12:33:47.196Z,22.20
2018-04-11T12:36:15.063Z,22.10
2018-04-11T12:38:42.671Z,22.00
2018-04-11T12:41:11.333Z,21.70
2018-04-11T12:43:39.177Z,21.70
2018-04-11T12:46:07.054Z,21.70
2018-04-11T12:48:36.398Z,21.80
2018-04-11T12:51:04.981Z,21.80
2018-04-11T12:53:33.297Z,21.80
2018-04-11T12:56:01.278Z,21.90
2018-04-11T12:58:30.069Z,22.00
2018-04-11T13:00:58.848Z,22.20
2018-04-11T13:03:27.228Z,22.30
2018-04-11T13:05:55.915Z,22.50
2018-04-11T13:08:23.405Z,22.70
2018-04-11T13:10:52.702Z,22.90
2018-04-11T13:13:20.329Z,22.80
2018-04-11T13:15:48.299Z,22.90
2018-04-11T13:18:16.068Z,23.00
2018-04-11T13:20:44.361Z,23.10
2018-04-11T13:23:12.482Z,23.20
2018-04-11T13:25:41.512Z,23.30
2018-04-11T13:28:09.384Z,23.30
2018-04-11T13:30:37.759Z,23.50
2018-04-11T13:33:05.339Z,23.60
2018-04-11T13:35:34.421Z,23.70
2018-04-11T13:38:02.358Z,23.70
2018-04-11T13:40:30.852Z,23.70
2018-04-11T13:42:59.130Z,23.80
2018-04-11T13:45:26.647Z,23.90
2018-04-11T13:47:54.423Z,23.90
2018-04-11T13:50:21.920Z,24.00
2018-04-11T13:52:49.493Z,24.00
2018-04-11T13:55:17.754Z,24.00
2018-04-11T13:57:45.255Z,24.00
2018-04-11T14:00:13.502Z,24.00
2018-04-11T14:02:41.799Z,24.00
2018-04-11T14:05:10.196Z,24.00
2018-04-11T14:07:37.722Z,24.00
2018-04-11T14:10:05.250Z,24.00
2018-04-11T14:12:32.735Z,24.00
2018-04-11T14:15:00.212Z,24.00
2018-04-11T14:17:28.497Z,23.90
2018-04-11T14:19:56.753Z,23.90
2018-04-11T14:22:25.053Z,23.90
2018-04-11T14:24:52.612Z,23.90
2018-04-11T14:27:20.289Z,23.90
2018-04-11T14:29:47.773Z,23.80
2018-04-11T14:32:15.285Z,23.80
2018-04-11T14:34:42.797Z,23.80
2018-04-11T14:37:10.303Z,23.80
2018-04-11T14:39:37.836Z,23.80
2018-04-11T14:42:05.327Z,23.80
2018-04-11T14:44:32.788Z,23.80
2018-04-11T14:47:00.286Z,23.80
2018-04-11T14:49:27.758Z,23.80
2018-04-11T14:51:55.739Z,23.80
2018-04-11T14:54:23.202Z,23.80
2018-04-11T14:56:51.466Z,23.80
2018-04-11T14:59:19.730Z,23.80
2018-04-11T15:01:48.716Z,23.80
2018-04-11T15:04:16.208Z,23.80
2018-04-11T15:06:45.074Z,23.70
2018-04-11T15:09:13.326Z,23.60
2018-04-11T15:11:40.827Z,23.60
2018-04-11T15:14:09.071Z,23.50
2018-04-11T15:16:36.690Z,23.50
2018-04-11T15:19:04.208Z,23.50
2018-04-11T15:21:31.752Z,23.40
2018-04-11T15:23:59.227Z,23.40
2018-04-11T15:26:26.696Z,23.40
2018-04-11T15:28:54.961Z,23.40
2018-04-11T15:31:22.456Z,23.40
2018-04-11T15:33:50.016Z,23.40
2018-04-11T15:36:17.552Z,23.30
2018-04-11T15:38:46.784Z,23.30
2018-04-11T15:41:14.537Z,23.30
2018-04-11T15:43:42.041Z,23.30
2018-04-11T15:46:23.000Z,23.30
2018-04-11T15:48:50.517Z,23.30
2018-04-11T15:51:18.008Z,23.20
2018-04-11T15:53:45.617Z,23.20
2018-04-11T15:56:13.917Z,23.10
2018-04-11T15:58:42.140Z,23.10
2018-04-11T16:01:12.314Z,23.00
2018-04-11T16:03:39.788Z,23.00
2018-04-11T16:06:07.266Z,23.00
2018-04-11T16:08:34.793Z,23.00
2018-04-11T16:11:02.291Z,23.00
2018-04-11T16:13:29.811Z,23.00
2018-04-11T16:15:57.292Z,23.00
2018-04-11T16:18:24.765Z,23.00
2018-04-11T16:20:53.974Z,23.00
2018-04-11T16:23:22.951Z,23.00
2018-04-11T16:25:51.996Z,23.00
2018-04-11T16:28:19.525Z,22.90
2018-04-11T16:30:47.203Z,22.90
2018-04-11T16:33:15.578Z,22.90
2018-04-11T16:35:43.879Z,22.90
2018-04-11T16:38:11.391Z,22.90
2018-04-11T16:40:39.640Z,22.80
2018-04-11T16:43:07.157Z,22.80
2018-04-11T16:45:34.650Z,22.80
2018-04-11T16:48:02.727Z,22.80
2018-04-11T16:50:30.261Z,22.80
2018-04-11T16:52:58.453Z,22.80
2018-04-11T16:55:25.913Z,22.80
2018-04-11T16:57:54.023Z,22.70
2018-04-11T17:00:21.509Z,22.80
2018-04-11T17:02:49.021Z,22.80
2018-04-11T17:05:16.508Z,22.80
2018-04-11T17:07:44.860Z,22.70
2018-04-11T17:10:12.358Z,22.70
2018-04-11T17:12:39.848Z,22.70
2018-04-11T17:15:07.956Z,22.70
2018-04-11T17:17:36.225Z,22.70
2018-04-11T17:20:04.290Z,22.70
2018-04-11T17:25:49.436Z,22.70
2018-04-11T17:28:28.865Z,22.70
2018-04-11T17:31:08.313Z,22.70
2018-04-11T17:33:35.857Z,22.70
2018-04-11T17:36:03.322Z,22.60
2018-04-11T17:38:30.827Z,22.60
2018-04-11T17:40:59.073Z,22.60
2018-04-11T17:43:26.570Z,22.60
2018-04-11T17:45:54.081Z,22.60
2018-04-11T17:48:21.570Z,22.60
2018-04-11T17:50:49.065Z,22.60
2018-04-11T17:53:17.329Z,22.60
2018-04-11T17:55:45.614Z,22.50
2018-04-11T17:58:13.878Z,22.50
2018-04-11T18:00:41.398Z,22.50
2018-04-11T18:03:08.871Z,22.50
2018-04-11T18:05:36.362Z,22.50
2018-04-11T18:08:04.652Z,22.50
2018-04-11T18:10:32.891Z,22.40
2018-04-11T18:13:00.396Z,22.40
2018-04-11T18:15:27.881Z,22.40
2018-04-11T18:17:55.486Z,22.40
2018-04-11T18:20:22.953Z,22.40
2018-04-11T18:22:51.199Z,22.30
2018-04-11T18:25:18.708Z,22.30
2018-04-11T18:27:46.200Z,22.30
2018-04-11T18:30:13.805Z,22.30
2018-04-11T18:32:43.015Z,22.30
2018-04-11T18:35:10.677Z,22.20
2018-04-11T18:37:38.957Z,22.20
2018-04-11T18:40:06.433Z,22.20
2018-04-11T18:42:33.940Z,22.20
2018-04-11T18:45:01.444Z,22.20
2018-04-11T18:47:28.948Z,22.20
2018-04-11T18:49:56.424Z,22.20
2018-04-11T18:52:25.125Z,22.20
2018-04-11T18:54:52.609Z,22.20
2018-04-11T18:57:20.198Z,22.20
2018-04-11T18:59:47.666Z,22.20
2018-04-11T19:02:15.148Z,22.20
2018-04-11T19:04:43.422Z,22.10
2018-04-11T19:07:11.669Z,22.10
2018-04-11T19:09:39.191Z,22.10
2018-04-11T19:12:06.674Z,22.20
2018-04-11T19:14:34.247Z,22.20
2018-04-11T19:17:02.516Z,22.10
2018-04-11T19:19:30.127Z,22.10
2018-04-11T19:21:57.602Z,22.10
2018-04-11T19:24:25.117Z,22.10
2018-04-11T19:26:53.399Z,22.10
2018-04-11T19:29:21.663Z,22.10
2018-04-11T19:31:49.155Z,22.10
2018-04-11T19:34:16.666Z,22.10
2018-04-11T19:36:44.203Z,22.10
2018-04-11T19:39:11.753Z,22.10
2018-04-11T19:41:39.248Z,22.10
2018-04-11T19:44:06.729Z,22.10
2018-04-11T19:46:34.999Z,22.10
2018-04-11T19:49:03.256Z,22.10
2018-04-11T19:51:30.760Z,22.10
2018-04-11T19:53:58.248Z,22.10
2018-04-11T19:56:25.774Z,22.10
2018-04-11T19:58:53.339Z,22.10
2018-04-11T20:01:20.861Z,22.10
2018-04-11T20:03:48.356Z,22.10
2018-04-11T20:06:15.824Z,22.10
2018-04-11T20:08:43.326Z,22.10
2018-04-11T20:11:11.626Z,22.20
2018-04-11T20:13:40.587Z,22.10
2018-04-11T20:16:09.607Z,22.20
2018-04-11T20:18:37.860Z,22.20
2018-04-11T20:21:05.362Z,22.10
2018-04-11T20:23:32.870Z,22.20
2018-04-11T20:26:00.339Z,22.20
2018-04-11T20:28:28.605Z,22.20
2018-04-11T20:30:56.925Z,22.20
2018-04-11T20:33:24.421Z,22.10
2018-04-11T20:35:51.947Z,22.20
2018-04-11T20:38:19.462Z,22.20
2018-04-11T20:40:46.960Z,22.20
2018-04-11T20:43:14.457Z,22.20
2018-04-11T20:45:42.785Z,22.20
2018-04-11T20:48:10.288Z,22.20
2018-04-11T20:50:37.768Z,22.10
2018-04-11T20:53:06.774Z,22.10
2018-04-11T20:55:35.024Z,22.10
2018-04-11T20:58:02.498Z,22.10
2018-04-11T21:00:29.997Z,22.10
2018-04-11T21:02:57.497Z,22.10
2018-04-11T21:05:24.989Z,22.10
2018-04-11T21:07:53.254Z,22.10
2018-04-11T21:10:20.726Z,22.10
2018-04-11T21:12:48.976Z,22.10
2018-04-11T21:15:16.459Z,22.10
2018-04-11T21:17:45.759Z,22.10
2018-04-11T21:20:14.147Z,22.00
2018-04-11T21:22:41.642Z,22.00
2018-04-11T21:25:09.814Z,22.00
2018-04-11T21:27:37.290Z,22.00
2018-04-11T21:30:04.775Z,22.10
2018-04-11T21:32:33.041Z,22.00
2018-04-11T21:35:00.537Z,22.00
2018-04-11T21:37:28.020Z,22.00
2018-04-11T21:39:56.203Z,22.00
2018-04-11T21:42:23.695Z,22.00
2018-04-11T21:44:51.981Z,22.00
2018-04-11T21:47:20.226Z,22.00
2018-04-11T21:49:48.479Z,22.00
2018-04-11T21:52:15.952Z,21.90
2018-04-11T21:54:43.446Z,21.90
2018-04-11T21:57:11.736Z,21.90
2018-04-11T21:59:39.282Z,21.90
2018-04-11T22:02:07.551Z,21.90
2018-04-11T22:04:35.783Z,21.90
2018-04-11T22:07:03.272Z,21.90
2018-04-11T22:09:31.510Z,21.90
2018-04-11T22:11:59.661Z,21.90
2018-04-11T22:14:27.155Z,21.90
2018-04-11T22:16:54.668Z,21.90
2018-04-11T22:19:22.596Z,21.90
2018-04-11T22:21:50.904Z,21.90
2018-04-11T22:24:18.344Z,21.90
2018-04-11T22:26:46.743Z,21.90
2018-04-11T22:29:14.263Z,21.90
2018-04-11T22:31:42.524Z,21.80
2018-04-11T22:34:09.978Z,21.80
2018-04-11T22:36:37.469Z,21.80
2018-04-11T22:39:04.971Z,21.80
2018-04-11T22:41:32.459Z,21.80
2018-04-11T22:43:59.940Z,21.80
2018-04-11T22:46:28.398Z,21.80
2018-04-11T22:48:55.890Z,21.80
2018-04-11T22:51:24.120Z,21.80
2018-04-11T22:53:51.651Z,21.80
2018-04-11T22:56:19.125Z,21.80
2018-04-11T22:58:46.715Z,21.80
2018-04-11T23:01:14.972Z,21.80
2018-04-11T23:03:42.443Z,21.80
2018-04-11T23:06:09.949Z,21.80
2018-04-11T23:08:37.438Z,21.80
2018-04-11T23:11:04.898Z,21.70
2018-04-11T23:13:32.406Z,21.80
2018-04-11T23:16:00.661Z,21.70
2018-04-11T23:18:29.675Z,21.70
2018-04-11T23:20:57.939Z,21.70
2018-04-11T23:23:26.197Z,21.70
2018-04-11T23:25:54.458Z,21.70
2018-04-11T23:28:21.948Z,21.70
2018-04-11T23:30:50.193Z,21.70
2018-04-11T23:33:18.437Z,21.70
2018-04-11T23:35:45.923Z,21.70
2018-04-11T23:38:13.390Z,21.70
2018-04-11T23:40:40.911Z,21.70
2018-04-11T23:43:08.403Z,21.70
2018-04-11T23:45:35.881Z,21.70
2018-04-11T23:48:04.144Z,21.70
2018-04-11T23:50:32.934Z,21.60
2018-04-11T23:53:01.165Z,21.60
2018-04-11T23:55:28.654Z,21.60
2018-04-11T23:57:56.127Z,21.70
